Time;durP1;ratioP1;P1;durP2;ratioP2;P2;SDS_P1;SDS_P2;PMS_P1;PMS_P2;Temp;Humidity;BMP_temperature;BMP_pressure;BME280_temperature;BME280_humidity;BME280_pressure;Samples;Min_cycle;Max_cycle;Signal;HPM_P1;HPM_P2
2021/12/09 00:02:03;;;;;;;19.47;11.70;;;4.70;1.00;;;;;;5044592;28;20464;-57
2021/12/09 00:04:31;;;;;;;19.30;12.27;;;4.80;1.00;;;;;;5041439;28;20440;-58
2021/12/09 00:06:59;;;;;;;17.90;12.00;;;4.70;1.00;;;;;;5046361;28;20458;-58
2021/12/09 00:09:25;;;;;;;21.13;11.83;;;4.70;1.00;;;;;;5048758;28;20448;-59
2021/12/09 00:11:51;;;;;;;20.33;11.90;;;4.70;1.00;;;;;;5049330;28;20458;-57
2021/12/09 00:14:24;;;;;;;16.10;11.27;;;4.70;1.00;;;;;;5045174;28;20256;-57
2021/12/09 00:16:50;;;;;;;21.27;12.20;;;4.60;1.00;;;;;;5044712;28;20433;-57
2021/12/09 00:19:17;;;;;;;20.70;13.00;;;4.50;1.00;;;;;;5046035;28;20464;-59
2021/12/09 00:21:42;;;;;;;19.80;12.90;;;4.50;1.00;;;;;;5042625;28;20435;-58
2021/12/09 00:24:08;;;;;;;20.20;12.80;;;4.50;1.00;;;;;;5049821;28;20954;-60
2021/12/09 00:26:34;;;;;;;19.50;13.33;;;4.40;1.00;;;;;;5047793;28;20205;-59
2021/12/09 00:29:00;;;;;;;24.70;14.97;;;4.40;1.00;;;;;;5050355;28;20484;-58
2021/12/09 00:31:25;;;;;;;27.73;17.43;;;4.40;1.00;;;;;;5051860;28;20274;-59
2021/12/09 00:33:51;;;;;;;29.33;17.63;;;4.40;1.00;;;;;;5042285;28;20187;-56
2021/12/09 00:36:27;;;;;;;32.20;18.03;;;4.40;1.00;;;;;;5045073;28;21419;-58
2021/12/09 00:38:57;;;;;;;30.87;16.60;;;4.40;1.00;;;;;;5054934;28;20887;-58
2021/12/09 00:41:23;;;;;;;25.07;15.83;;;4.30;1.00;;;;;;5049297;28;20446;-58
2021/12/09 00:43:49;;;;;;;33.63;18.70;;;4.30;1.00;;;;;;5052458;28;20558;-59
2021/12/09 00:46:15;;;;;;;27.30;16.17;;;4.20;1.00;;;;;;5050193;28;20563;-57
2021/12/09 00:48:41;;;;;;;28.50;16.90;;;4.10;1.00;;;;;;5052187;28;20503;-57
2021/12/09 00:51:08;;;;;;;31.20;17.57;;;4.00;1.00;;;;;;5051989;28;20444;-58
2021/12/09 00:53:34;;;;;;;29.57;17.00;;;3.90;1.00;;;;;;5053836;28;20450;-58
2021/12/09 00:56:01;;;;;;;30.67;17.60;;;4.00;1.00;;;;;;5048748;28;20432;-58
2021/12/09 00:58:26;;;;;;;34.57;19.23;;;4.00;1.00;;;;;;5048965;28;20486;-57
2021/12/09 01:00:52;;;;;;;33.20;18.80;;;4.00;1.00;;;;;;5050783;28;20478;-58
2021/12/09 01:03:18;;;;;;;30.90;17.83;;;4.20;1.00;;;;;;5046932;28;20191;-58
2021/12/09 01:05:45;;;;;;;33.00;19.90;;;4.10;1.00;;;;;;5051486;28;20230;-58
2021/12/09 01:08:11;;;;;;;35.20;19.63;;;4.20;1.00;;;;;;5051925;28;20187;-57
2021/12/09 01:10:37;;;;;;;32.87;17.60;;;4.20;1.00;;;;;;5054278;28;20443;-58
2021/12/09 01:13:03;;;;;;;29.47;19.20;;;4.30;1.00;;;;;;5032143;28;20505;-57
2021/12/09 01:15:29;;;;;;;31.67;17.10;;;4.20;1.00;;;;;;5052899;28;20536;-58
2021/12/09 01:17:55;;;;;;;31.33;18.40;;;4.10;1.00;;;;;;5051186;28;20194;-58
2021/12/09 01:20:25;;;;;;;32.20;18.20;;;4.10;1.00;;;;;;5053330;28;20423;-58
2021/12/09 01:22:53;;;;;;;32.37;19.00;;;4.00;1.00;;;;;;5054098;28;20445;-58
2021/12/09 01:25:19;;;;;;;32.30;18.50;;;4.00;1.00;;;;;;5051483;28;20533;-57
2021/12/09 01:27:47;;;;;;;32.87;19.30;;;4.00;1.00;;;;;;5049820;28;20472;-58
2021/12/09 01:30:17;;;;;;;33.30;19.10;;;4.00;1.00;;;;;;5047866;28;20906;-59
2021/12/09 01:32:50;;;;;;;38.97;22.30;;;4.00;1.00;;;;;;5046843;28;20452;-58
2021/12/09 01:35:23;;;;;;;34.07;21.03;;;4.00;1.00;;;;;;5046908;28;20744;-58
2021/12/09 01:37:54;;;;;;;33.13;19.87;;;4.00;1.00;;;;;;5040162;28;20457;-59
2021/12/09 01:40:20;;;;;;;42.33;22.20;;;3.90;1.00;;;;;;5046276;28;20517;-58
2021/12/09 01:42:46;;;;;;;37.97;21.97;;;3.90;1.00;;;;;;5054230;28;20454;-59
2021/12/09 01:45:12;;;;;;;37.97;20.10;;;3.80;1.00;;;;;;5050480;28;20965;-58
2021/12/09 01:47:38;;;;;;;39.97;21.43;;;3.80;1.00;;;;;;5049917;28;20184;-58
2021/12/09 01:50:05;;;;;;;32.43;20.50;;;3.80;1.00;;;;;;5049744;28;20932;-57
2021/12/09 01:52:31;;;;;;;37.57;21.00;;;3.90;1.00;;;;;;5051040;28;20514;-58
2021/12/09 01:54:56;;;;;;;41.30;23.17;;;3.90;1.00;;;;;;5052991;28;20441;-58
2021/12/09 01:57:22;;;;;;;33.30;20.67;;;3.90;1.00;;;;;;5050877;28;20185;-56
2021/12/09 01:59:48;;;;;;;42.60;22.57;;;3.90;1.00;;;;;;5052621;28;20291;-58
2021/12/09 02:02:14;;;;;;;40.50;22.83;;;3.80;1.00;;;;;;5049726;28;20245;-57
2021/12/09 02:04:40;;;;;;;38.70;21.00;;;;;;;;;;5045857;28;20445;-59
2021/12/09 02:07:05;;;;;;;36.50;21.20;;;3.70;1.00;;;;;;5047372;28;20650;-57
2021/12/09 02:09:32;;;;;;;40.60;23.00;;;3.70;1.00;;;;;;5049316;28;20443;-57
2021/12/09 02:11:58;;;;;;;40.40;22.60;;;3.70;1.00;;;;;;5049271;28;20266;-60
2021/12/09 02:14:23;;;;;;;42.63;22.57;;;3.70;1.00;;;;;;5049229;28;20532;-59
2021/12/09 02:16:49;;;;;;;41.90;21.87;;;3.80;1.00;;;;;;5055306;28;20207;-58
2021/12/09 02:19:15;;;;;;;41.13;21.83;;;3.80;1.00;;;;;;5051797;28;20637;-58
2021/12/09 02:21:42;;;;;;;40.17;23.87;;;3.80;1.00;;;;;;5050440;28;20262;-57
2021/12/09 02:24:10;;;;;;;39.60;21.93;;;3.80;1.00;;;;;;5053653;28;20451;-58
2021/12/09 02:26:39;;;;;;;42.77;23.53;;;3.90;1.00;;;;;;5047522;28;20451;-58
2021/12/09 02:29:07;;;;;;;42.70;22.30;;;3.90;1.00;;;;;;5049313;28;20906;-58
2021/12/09 02:31:34;;;;;;;37.33;20.70;;;3.80;1.00;;;;;;5046234;28;20444;-56
2021/12/09 02:34:01;;;;;;;40.37;21.87;;;3.80;1.00;;;;;;5044590;28;20457;-59
2021/12/09 02:36:30;;;;;;;38.33;22.90;;;3.90;1.00;;;;;;5049757;28;21082;-58
2021/12/09 02:38:56;;;;;;;38.27;23.53;;;3.80;1.00;;;;;;5052590;28;20469;-57
2021/12/09 02:41:24;;;;;;;40.10;22.87;;;3.80;1.00;;;;;;5048925;28;20462;-57
2021/12/09 02:44:01;;;;;;;37.90;22.93;;;3.90;1.00;;;;;;5044634;28;20483;-58
2021/12/09 02:46:27;;;;;;;38.53;22.00;;;3.90;1.00;;;;;;5045661;28;20559;-58
2021/12/09 02:48:53;;;;;;;38.13;21.53;;;3.90;1.00;;;;;;5050850;28;20801;-57
2021/12/09 02:51:19;;;;;;;37.67;21.53;;;3.90;1.00;;;;;;5052195;28;20566;-57
2021/12/09 02:53:45;;;;;;;40.07;22.70;;;;;;;;;;5052074;28;20530;-57
2021/12/09 02:56:11;;;;;;;41.53;22.13;;;;;;;;;;5050519;28;20709;-59
2021/12/09 02:58:37;;;;;;;43.10;24.10;;;3.70;1.00;;;;;;5048271;28;20424;-58
2021/12/09 03:01:18;;;;;;;41.67;23.40;;;3.70;1.00;;;;;;5048667;28;20434;-58
2021/12/09 03:03:52;;;;;;;40.90;23.60;;;3.70;1.00;;;;;;5043875;28;20454;-56
2021/12/09 03:06:20;;;;;;;41.93;23.03;;;3.80;1.00;;;;;;5049911;28;21086;-58
2021/12/09 03:08:45;;;;;;;38.87;24.30;;;3.80;1.00;;;;;;5049926;28;20457;-58
2021/12/09 03:11:15;;;;;;;38.63;22.10;;;3.80;1.00;;;;;;5048998;28;20493;-58
2021/12/09 03:13:42;;;;;;;39.43;22.80;;;3.80;1.00;;;;;;5050023;28;20207;-57
2021/12/09 03:16:09;;;;;;;40.23;24.10;;;3.80;1.00;;;;;;5043669;28;20427;-58
2021/12/09 03:18:43;;;;;;;38.03;22.97;;;3.90;1.00;;;;;;5050176;28;20452;-57
2021/12/09 03:21:21;;;;;;;40.90;22.63;;;4.00;1.00;;;;;;5046807;28;20534;-57
2021/12/09 03:23:47;;;;;;;42.77;22.33;;;4.00;1.00;;;;;;5046921;28;20462;-57
2021/12/09 03:26:15;;;;;;;42.50;23.30;;;4.00;1.00;;;;;;5049504;28;20465;-57
2021/12/09 03:28:41;;;;;;;41.60;22.87;;;4.00;1.00;;;;;;5048577;28;20578;-57
2021/12/09 03:31:07;;;;;;;42.40;25.10;;;;;;;;;;5045887;28;21029;-57
2021/12/09 03:33:33;;;;;;;45.83;24.30;;;4.10;1.00;;;;;;5050109;28;20183;-56
2021/12/09 03:36:00;;;;;;;39.27;21.60;;;4.00;1.00;;;;;;5049531;28;20812;-57
2021/12/09 03:38:27;;;;;;;45.47;23.77;;;4.10;1.00;;;;;;5051446;28;20194;-59
2021/12/09 03:40:53;;;;;;;48.73;24.90;;;4.10;1.00;;;;;;5047319;28;20915;-58
2021/12/09 03:43:19;;;;;;;39.83;23.53;;;;;;;;;;5045893;28;20475;-57
2021/12/09 03:45:45;;;;;;;48.83;24.97;;;4.20;1.00;;;;;;5039811;28;20474;-59
2021/12/09 03:48:11;;;;;;;44.33;24.40;;;4.00;1.00;;;;;;5047746;28;20803;-58
2021/12/09 03:50:37;;;;;;;42.00;22.80;;;3.80;1.00;;;;;;5048293;28;20192;-58
2021/12/09 03:53:03;;;;;;;50.00;25.33;;;3.70;1.00;;;;;;5053981;28;20194;-57
2021/12/09 03:55:29;;;;;;;40.57;23.73;;;3.60;1.00;;;;;;5047654;28;20832;-57
2021/12/09 03:57:55;;;;;;;41.00;23.00;;;;;;;;;;5038289;28;20477;-58
2021/12/09 04:00:23;;;;;;;41.47;24.23;;;3.70;1.00;;;;;;5049195;28;20970;-58
2021/12/09 04:02:48;;;;;;;44.73;24.80;;;3.80;1.00;;;;;;5045984;28;20899;-57
2021/12/09 04:05:14;;;;;;;40.53;24.10;;;3.80;1.00;;;;;;5048695;28;20474;-57
2021/12/09 04:07:39;;;;;;;43.73;24.70;;;3.80;1.00;;;;;;5049168;28;20298;-59
2021/12/09 04:10:06;;;;;;;39.10;22.20;;;4.00;1.00;;;;;;5049714;28;20186;-59
2021/12/09 04:12:32;;;;;;;42.40;24.73;;;4.00;1.00;;;;;;5051296;28;20582;-57
2021/12/09 04:14:57;;;;;;;37.20;25.23;;;4.00;1.00;;;;;;5050259;28;20553;-57
2021/12/09 04:17:23;;;;;;;44.07;23.73;;;4.10;1.00;;;;;;5051016;28;20540;-57
2021/12/09 04:19:48;;;;;;;44.70;23.50;;;4.20;1.00;;;;;;5037706;28;20182;-56
2021/12/09 04:22:17;;;;;;;40.00;23.27;;;4.20;1.00;;;;;;5047736;28;20696;-57
2021/12/09 04:24:43;;;;;;;40.37;22.50;;;4.30;1.00;;;;;;5049718;28;20181;-57
2021/12/09 04:27:08;;;;;;;42.33;23.87;;;4.30;1.00;;;;;;5050650;28;20773;-59
2021/12/09 04:29:34;;;;;;;41.20;23.90;;;4.20;1.00;;;;;;5050725;28;20449;-59
2021/12/09 04:31:59;;;;;;;43.47;23.60;;;4.30;1.00;;;;;;5044826;28;20193;-56
2021/12/09 04:34:25;;;;;;;34.97;21.70;;;4.30;1.00;;;;;;5045829;28;20530;-57
2021/12/09 04:36:50;;;;;;;42.53;25.07;;;4.30;1.00;;;;;;5052907;28;20203;-58
2021/12/09 04:39:16;;;;;;;37.50;23.20;;;4.30;1.00;;;;;;5050254;28;20207;-58
2021/12/09 04:41:42;;;;;;;43.20;23.83;;;4.20;1.00;;;;;;5055848;28;20198;-58
2021/12/09 04:44:08;;;;;;;40.73;21.97;;;4.20;1.00;;;;;;5046883;28;20196;-59
2021/12/09 04:46:36;;;;;;;39.27;22.47;;;4.30;1.00;;;;;;5047688;28;20218;-58
2021/12/09 04:49:03;;;;;;;38.73;21.23;;;4.30;1.00;;;;;;5055776;28;20445;-59
2021/12/09 04:51:28;;;;;;;33.07;21.00;;;4.30;1.00;;;;;;5049290;28;20746;-57
2021/12/09 04:53:54;;;;;;;36.67;21.90;;;4.40;1.00;;;;;;5052276;28;20759;-58
2021/12/09 04:56:20;;;;;;;35.30;22.33;;;4.30;1.00;;;;;;5053372;28;20537;-61
2021/12/09 04:58:46;;;;;;;37.93;21.20;;;4.30;1.00;;;;;;5052631;28;20442;-58
2021/12/09 05:01:12;;;;;;;35.40;21.50;;;3.40;1.00;;;;;;5052711;28;20431;-58
2021/12/09 05:03:38;;;;;;;33.60;20.20;;;;;;;;;;5051565;28;20500;-58
2021/12/09 05:06:03;;;;;;;46.70;24.23;;;4.30;1.00;;;;;;5058268;28;20251;-63
2021/12/09 05:08:32;;;;;;;39.27;22.93;;;4.30;1.00;;;;;;5061784;28;20442;-62
2021/12/09 05:11:12;;;;;;;39.27;22.17;;;4.30;1.00;;;;;;5066007;28;20238;-62
2021/12/09 05:13:39;;;;;;;35.50;20.80;;;4.30;1.00;;;;;;5054559;28;20435;-61
2021/12/09 05:16:07;;;;;;;43.57;22.60;;;4.30;1.00;;;;;;5063371;28;20447;-61
2021/12/09 05:18:35;;;;;;;34.13;20.43;;;4.20;1.00;;;;;;5065877;28;20936;-63
2021/12/09 05:21:03;;;;;;;43.20;22.77;;;4.20;1.00;;;;;;5058186;28;20716;-57
2021/12/09 05:23:30;;;;;;;34.37;21.17;;;4.20;1.00;;;;;;5050053;28;20450;-59
2021/12/09 05:25:55;;;;;;;37.00;21.83;;;4.20;1.00;;;;;;5051732;28;20816;-59
2021/12/09 05:28:30;;;;;;;36.17;20.40;;;4.30;1.00;;;;;;5052870;28;20478;-58
2021/12/09 05:33:42;;;;;;;36.33;20.20;;;4.20;1.00;;;;;;5051023;28;21004;-58
2021/12/09 05:36:07;;;;;;;35.20;20.20;;;4.20;1.00;;;;;;5052609;28;20954;-60
2021/12/09 05:38:33;;;;;;;38.53;20.63;;;;;;;;;;5051254;28;20457;-58
2021/12/09 05:40:59;;;;;;;33.00;21.27;;;;;;;;;;5052520;28;20204;-57
2021/12/09 05:43:26;;;;;;;29.53;19.60;;;4.30;1.00;;;;;;5050915;28;20481;-57
2021/12/09 05:45:52;;;;;;;34.13;20.03;;;4.20;1.00;;;;;;5056241;28;20477;-59
2021/12/09 05:48:18;;;;;;;36.20;20.53;;;4.30;1.00;;;;;;5055307;28;20942;-58
2021/12/09 05:50:44;;;;;;;33.90;20.13;;;4.20;1.00;;;;;;5059046;28;20181;-59
2021/12/09 05:53:10;;;;;;;32.60;18.67;;;4.30;1.00;;;;;;5049771;28;20457;-58
2021/12/09 05:55:36;;;;;;;29.23;18.50;;;4.30;1.00;;;;;;5050810;28;20946;-60
2021/12/09 05:58:02;;;;;;;34.00;19.03;;;4.40;1.00;;;;;;5058419;28;20454;-59
2021/12/09 06:00:28;;;;;;;28.20;17.87;;;4.40;1.00;;;;;;5050174;28;20180;-58
2021/12/09 06:02:54;;;;;;;31.67;19.33;;;4.40;1.00;;;;;;5056518;28;20442;-58
2021/12/09 06:05:20;;;;;;;28.37;17.30;;;4.30;1.00;;;;;;5054172;28;20211;-58
2021/12/09 06:07:47;;;;;;;34.93;19.07;;;4.30;1.00;;;;;;5051753;28;20640;-59
2021/12/09 06:10:12;;;;;;;30.20;18.67;;;4.20;1.00;;;;;;5050311;28;20522;-57
2021/12/09 06:12:38;;;;;;;28.60;19.07;;;4.20;1.00;;;;;;5051232;28;20585;-58
2021/12/09 06:15:05;;;;;;;35.43;21.00;;;4.30;1.00;;;;;;5050651;28;20237;-59
2021/12/09 06:17:30;;;;;;;29.60;18.80;;;4.30;1.00;;;;;;5048243;28;20191;-59
2021/12/09 06:19:56;;;;;;;30.20;19.27;;;4.30;1.00;;;;;;5049882;28;20972;-58
2021/12/09 06:22:22;;;;;;;28.60;18.90;;;4.30;1.00;;;;;;5051291;28;20203;-58
2021/12/09 06:24:49;;;;;;;28.73;19.20;;;4.30;1.00;;;;;;5050641;28;20198;-60
2021/12/09 06:27:15;;;;;;;32.30;18.67;;;4.20;1.00;;;;;;5051101;28;20224;-60
2021/12/09 06:29:40;;;;;;;31.50;19.00;;;4.20;1.00;;;;;;5051179;28;20534;-58
2021/12/09 06:32:07;;;;;;;35.47;21.30;;;4.20;1.00;;;;;;5051916;28;20829;-58
2021/12/09 06:34:34;;;;;;;30.07;19.03;;;4.30;1.00;;;;;;5050651;28;20193;-59
2021/12/09 06:37:00;;;;;;;34.23;20.77;;;4.40;1.00;;;;;;5049490;28;20444;-59
2021/12/09 06:39:25;;;;;;;33.83;19.67;;;4.50;1.00;;;;;;5050458;28;20450;-58
2021/12/09 06:41:51;;;;;;;33.43;21.07;;;4.40;1.00;;;;;;5050324;28;20820;-59
2021/12/09 06:44:18;;;;;;;33.80;22.50;;;4.40;1.00;;;;;;5053679;28;20192;-60
2021/12/09 06:46:43;;;;;;;33.38;19.90;;;4.40;1.00;;;;;;5050756;28;20497;-60
2021/12/09 06:49:09;;;;;;;28.80;19.57;;;4.40;1.00;;;;;;5050360;28;20569;-61
2021/12/09 06:51:35;;;;;;;34.07;20.73;;;4.50;1.00;;;;;;5051018;28;20184;-60
2021/12/09 06:54:00;;;;;;;32.23;21.00;;;4.50;1.00;;;;;;5049374;28;20177;-60
2021/12/09 06:56:27;;;;;;;33.70;19.60;;;4.50;1.00;;;;;;5050395;28;20172;-60
2021/12/09 06:58:54;;;;;;;27.70;18.97;;;4.50;1.00;;;;;;5049110;28;20738;-58
2021/12/09 07:01:20;;;;;;;31.57;19.13;;;4.50;1.00;;;;;;5049871;28;20447;-60
2021/12/09 07:03:45;;;;;;;37.77;20.00;;;4.60;1.00;;;;;;5049937;28;20447;-59
2021/12/09 07:06:12;;;;;;;35.63;19.40;;;4.60;1.00;;;;;;5049973;28;20458;-59
2021/12/09 07:08:45;;;;;;;30.87;18.80;;;4.60;1.00;;;;;;5032416;28;20181;-59
2021/12/09 07:11:12;;;;;;;31.00;18.23;;;4.60;1.00;;;;;;5049783;28;20931;-58
2021/12/09 07:13:37;;;;;;;31.87;19.60;;;4.70;1.00;;;;;;5050462;28;20900;-60
2021/12/09 07:16:04;;;;;;;28.43;18.40;;;4.70;1.00;;;;;;5050530;28;20448;-59
2021/12/09 07:18:31;;;;;;;31.20;18.10;;;4.80;1.00;;;;;;5049551;28;20380;-60
2021/12/09 07:20:58;;;;;;;27.60;18.53;;;4.70;1.00;;;;;;5048414;28;20633;-60
2021/12/09 07:23:23;;;;;;;31.50;19.13;;;4.70;1.00;;;;;;5048570;28;20461;-59
2021/12/09 07:25:49;;;;;;;40.00;21.60;;;4.80;1.00;;;;;;5050002;28;20474;-59
2021/12/09 07:28:15;;;;;;;39.77;19.57;;;4.80;1.00;;;;;;5049781;28;20231;-60
2021/12/09 07:30:41;;;;;;;27.67;18.73;;;4.70;1.00;;;;;;5050207;28;20445;-59
2021/12/09 07:33:07;;;;;;;32.73;19.50;;;4.70;1.00;;;;;;5049991;28;20442;-59
2021/12/09 07:35:33;;;;;;;28.17;18.60;;;4.70;1.00;;;;;;5049796;28;20449;-60
2021/12/09 07:38:01;;;;;;;32.60;19.73;;;4.80;1.00;;;;;;5050019;28;20453;-59
2021/12/09 07:40:27;;;;;;;30.83;18.40;;;4.80;1.00;;;;;;5048147;28;20279;-60
2021/12/09 07:42:53;;;;;;;35.67;19.53;;;4.80;1.00;;;;;;5049457;28;20991;-59
2021/12/09 07:45:19;;;;;;;31.90;19.87;;;4.70;1.00;;;;;;5053361;28;20561;-59
2021/12/09 07:47:46;;;;;;;31.20;19.90;;;4.80;1.00;;;;;;5053715;28;20438;-58
2021/12/09 07:50:15;;;;;;;30.07;19.13;;;4.80;1.00;;;;;;5054013;28;20448;-58
2021/12/09 07:52:43;;;;;;;35.13;19.73;;;4.90;1.00;;;;;;5053939;28;20520;-58
2021/12/09 07:55:10;;;;;;;31.67;19.93;;;4.80;1.00;;;;;;5054059;28;21115;-60
2021/12/09 07:57:37;;;;;;;31.50;19.97;;;4.80;1.00;;;;;;5052812;28;20526;-59
2021/12/09 08:00:11;;;;;;;32.20;20.40;;;4.80;1.00;;;;;;5054383;28;21424;-60
2021/12/09 08:02:37;;;;;;;32.90;20.70;;;4.80;1.00;;;;;;5053770;28;20442;-59
2021/12/09 08:05:03;;;;;;;32.23;19.90;;;4.80;1.00;;;;;;5053944;28;20453;-60
2021/12/09 08:07:29;;;;;;;36.13;20.57;;;5.00;1.00;;;;;;5052507;28;20525;-60
2021/12/09 08:09:54;;;;;;;31.50;20.07;;;5.00;1.00;;;;;;5053601;28;20849;-59
2021/12/09 08:12:20;;;;;;;33.30;22.40;;;4.90;1.00;;;;;;5052675;28;20436;-61
2021/12/09 08:14:45;;;;;;;37.77;21.90;;;4.90;1.00;;;;;;5053326;28;20222;-59
2021/12/09 08:20:19;;;;;;;32.47;20.23;;;4.90;1.00;;;;;;5071234;28;20202;-59
2021/12/09 08:22:46;;;;;;;34.73;21.47;;;5.00;1.00;;;;;;5070761;28;20531;-59
2021/12/09 08:25:13;;;;;;;33.00;20.83;;;5.00;1.00;;;;;;5051647;28;20270;-61
2021/12/09 08:27:42;;;;;;;29.67;20.90;;;5.00;1.00;;;;;;5052630;28;20502;-58
2021/12/09 08:30:14;;;;;;;38.00;21.77;;;4.90;1.00;;;;;;5053082;28;20443;-59
2021/12/09 08:32:40;;;;;;;34.67;21.97;;;4.90;1.00;;;;;;5052295;28;20926;-60
2021/12/09 08:35:07;;;;;;;38.37;21.97;;;4.80;1.00;;;;;;5056448;28;20459;-61
2021/12/09 08:37:33;;;;;;;31.40;21.93;;;4.80;1.00;;;;;;5051825;28;20696;-59
2021/12/09 08:39:59;;;;;;;29.90;19.60;;;4.90;1.00;;;;;;5053244;28;20522;-58
2021/12/09 08:42:25;;;;;;;34.10;23.10;;;4.80;1.00;;;;;;5052832;28;20187;-60
2021/12/09 08:44:52;;;;;;;36.83;22.27;;;4.90;1.00;;;;;;5052793;28;20657;-59
2021/12/09 08:47:18;;;;;;;30.13;20.60;;;4.90;1.00;;;;;;5053324;28;20487;-60
2021/12/09 08:49:45;;;;;;;37.77;23.87;;;4.90;1.00;;;;;;5052021;28;20435;-60
2021/12/09 08:52:11;;;;;;;37.90;22.50;;;;;;;;;;5052124;28;20180;-61
2021/12/09 08:54:37;;;;;;;36.77;24.10;;;4.90;1.00;;;;;;5069474;28;20465;-61
2021/12/09 08:57:04;;;;;;;35.40;21.27;;;4.90;1.00;;;;;;5072465;28;20452;-59
2021/12/09 08:59:30;;;;;;;34.00;22.10;;;4.90;1.00;;;;;;5073271;28;20442;-60
2021/12/09 09:01:56;;;;;;;36.90;23.80;;;5.00;1.00;;;;;;5073079;28;20436;-62
2021/12/09 09:04:22;;;;;;;33.27;22.53;;;4.90;1.00;;;;;;5072059;28;21000;-61
2021/12/09 09:06:54;;;;;;;34.80;20.63;;;4.90;1.00;;;;;;5072894;28;20242;-58
2021/12/09 09:09:19;;;;;;;37.63;21.67;;;5.00;1.00;;;;;;5072947;28;20183;-60
2021/12/09 09:11:45;;;;;;;37.00;22.20;;;;;;;;;;5072939;28;20430;-60
2021/12/09 09:14:11;;;;;;;34.27;22.03;;;5.00;1.00;;;;;;5072653;28;20647;-60
2021/12/09 09:16:38;;;;;;;37.47;22.60;;;5.00;1.00;;;;;;5072786;28;20434;-61
2021/12/09 09:19:04;;;;;;;36.23;22.30;;;5.00;1.00;;;;;;5072533;28;20241;-60
2021/12/09 09:21:31;;;;;;;39.40;25.73;;;5.00;1.00;;;;;;5072853;28;20798;-61
2021/12/09 09:23:56;;;;;;;39.80;23.07;;;4.90;1.00;;;;;;5058212;28;20848;-59
2021/12/09 09:26:22;;;;;;;35.03;22.07;;;5.00;1.00;;;;;;5052877;28;20510;-60
2021/12/09 09:28:48;;;;;;;39.53;25.80;;;4.90;1.00;;;;;;5052523;28;20225;-61
2021/12/09 09:31:14;;;;;;;40.90;23.30;;;5.00;1.00;;;;;;5052859;28;20193;-59
2021/12/09 09:33:40;;;;;;;36.03;23.27;;;5.00;1.00;;;;;;5052857;28;20442;-59
2021/12/09 09:36:05;;;;;;;36.03;22.50;;;5.10;1.00;;;;;;5052626;28;20192;-58
2021/12/09 09:38:32;;;;;;;41.73;23.93;;;5.20;1.00;;;;;;5051295;28;20200;-61
2021/12/09 09:41:08;;;;;;;36.70;22.97;;;5.20;1.00;;;;;;5052877;28;20184;-61
2021/12/09 09:46:13;;;;;;;35.10;22.83;;;5.30;1.00;;;;;;5052277;28;20553;-59
2021/12/09 09:48:39;;;;;;;35.37;23.27;;;5.20;1.00;;;;;;5052337;28;20988;-58
2021/12/09 09:51:07;;;;;;;32.30;21.07;;;5.20;1.00;;;;;;5052163;28;20824;-58
2021/12/09 09:53:33;;;;;;;32.20;20.77;;;5.20;1.00;;;;;;5052516;28;20450;-59
2021/12/09 09:55:59;;;;;;;36.70;21.10;;;5.10;1.00;;;;;;5052165;28;20450;-58
2021/12/09 09:58:25;;;;;;;35.23;22.67;;;5.10;1.00;;;;;;5052080;28;20435;-59
2021/12/09 10:00:51;;;;;;;41.70;23.57;;;5.10;1.00;;;;;;5052555;28;20183;-59
2021/12/09 10:03:17;;;;;;;38.73;23.53;;;5.20;1.00;;;;;;5051929;28;20457;-59
2021/12/09 10:05:46;;;;;;;36.27;21.90;;;5.10;1.00;;;;;;5052051;28;20471;-59
2021/12/09 10:08:15;;;;;;;37.00;22.50;;;5.20;1.00;;;;;;5056491;28;20449;-58
2021/12/09 10:10:46;;;;;;;32.60;21.90;;;5.10;1.00;;;;;;5070491;28;20449;-58
2021/12/09 10:13:14;;;;;;;37.43;23.97;;;5.10;1.00;;;;;;5071780;28;21006;-60
2021/12/09 10:15:46;;;;;;;38.37;23.40;;;5.10;1.00;;;;;;5051627;28;20542;-59
2021/12/09 10:18:13;;;;;;;38.40;23.80;;;5.10;1.00;;;;;;5051849;28;20435;-60
2021/12/09 10:20:55;;;;;;;38.00;23.00;;;5.30;1.00;;;;;;5051800;28;20999;-59
2021/12/09 10:23:33;;;;;;;37.43;22.27;;;5.20;1.00;;;;;;5050067;28;20465;-60
2021/12/09 10:26:19;;;;;;;33.73;22.33;;;5.30;1.00;;;;;;5051448;28;20462;-59
2021/12/09 10:29:04;;;;;;;32.50;21.43;;;5.40;1.00;;;;;;5051331;28;20469;-59
2021/12/09 10:31:40;;;;;;;32.87;20.67;;;5.40;1.00;;;;;;5069371;28;20426;-59
2021/12/09 10:34:15;;;;;;;36.17;22.57;;;5.40;1.00;;;;;;5071561;28;20819;-59
2021/12/09 10:36:52;;;;;;;35.10;22.90;;;5.40;1.00;;;;;;5071309;28;20434;-60
2021/12/09 10:39:22;;;;;;;30.67;21.10;;;5.40;1.00;;;;;;5057971;28;20578;-59
2021/12/09 10:41:48;;;;;;;30.60;20.63;;;5.50;1.00;;;;;;5049952;28;20446;-59
2021/12/09 10:44:15;;;;;;;37.40;23.83;;;5.40;1.00;;;;;;5051301;28;20797;-58
2021/12/09 10:46:55;;;;;;;35.77;21.43;;;5.40;1.00;;;;;;5050825;28;20481;-60
2021/12/09 10:49:21;;;;;;;30.97;21.60;;;5.40;1.00;;;;;;5051496;28;20438;-60
2021/12/09 10:52:13;;;;;;;32.60;20.33;;;5.40;1.00;;;;;;5051061;28;20513;-60
2021/12/09 10:54:36;;;;;;;31.20;19.77;;;5.50;1.00;;;;;;5050845;28;20482;-60
2021/12/09 10:57:25;;;;;;;37.83;23.50;;;5.40;1.00;;;;;;5050107;28;20485;-60
2021/12/09 10:59:52;;;;;;;30.70;21.17;;;5.40;1.00;;;;;;5050865;28;20450;-59
2021/12/09 11:02:18;;;;;;;36.33;22.30;;;;;;;;;;5051010;28;20430;-61
2021/12/09 11:05:02;;;;;;;36.20;23.10;;;5.50;1.00;;;;;;5050716;28;20522;-60
2021/12/09 11:07:31;;;;;;;35.43;22.87;;;5.60;1.00;;;;;;5050780;28;20476;-59
2021/12/09 11:10:18;;;;;;;33.87;22.80;;;5.80;1.00;;;;;;5050638;28;20434;-58
2021/12/09 11:12:52;;;;;;;33.97;21.40;;;5.90;1.00;;;;;;5050625;28;20438;-59
2021/12/09 11:15:20;;;;;;;31.70;21.23;;;6.00;1.00;;;;;;5051132;28;20442;-59
2021/12/09 11:17:46;;;;;;;36.30;22.10;;;5.90;1.00;;;;;;5050246;28;20843;-59
2021/12/09 11:20:13;;;;;;;33.53;22.27;;;6.00;1.00;;;;;;5050686;28;20501;-59
2021/12/09 11:22:39;;;;;;;33.20;20.90;;;6.00;1.00;;;;;;5051030;28;20449;-60
2021/12/09 11:25:31;;;;;;;34.67;20.10;;;6.00;1.00;;;;;;5050202;28;20867;-59
2021/12/09 11:28:11;;;;;;;35.70;21.67;;;6.10;1.00;;;;;;5049678;28;20974;-60
2021/12/09 11:31:15;;;;;;;34.53;22.67;;;6.10;1.00;;;;;;5050718;28;20492;-60
2021/12/09 11:33:44;;;;;;;36.73;22.00;;;6.00;1.00;;;;;;5049783;28;20856;-59
2021/12/09 11:36:16;;;;;;;36.50;23.17;;;6.10;1.00;;;;;;5049508;28;20469;-60
2021/12/09 11:39:07;;;;;;;40.40;23.93;;;6.10;1.00;;;;;;5048982;28;20490;-60
2021/12/09 11:41:37;;;;;;;34.23;21.33;;;6.00;1.00;;;;;;5049370;28;20445;-59
2021/12/09 11:44:03;;;;;;;35.80;22.60;;;6.00;1.00;;;;;;5050356;28;20427;-59
2021/12/09 11:46:28;;;;;;;38.03;24.13;;;5.90;1.00;;;;;;5050358;28;20469;-59
2021/12/09 11:48:55;;;;;;;34.10;24.40;;;5.80;1.00;;;;;;5049976;28;20181;-59
2021/12/09 11:51:21;;;;;;;34.33;22.50;;;5.80;1.00;;;;;;5052131;28;20512;-59
2021/12/09 11:53:54;;;;;;;34.60;23.17;;;5.70;1.00;;;;;;5070624;28;20428;-59
2021/12/09 11:56:31;;;;;;;36.37;23.30;;;5.70;1.00;;;;;;5070480;28;21072;-59
2021/12/09 12:15:26;;;;;;;42.40;23.83;;;5.70;1.00;;;;;;5050762;28;20770;-59
2021/12/09 12:21:44;;;;;;;35.30;23.00;;;5.70;1.00;;;;;;5050435;28;20518;-58
2021/12/09 12:37:54;;;;;;;33.53;23.00;;;5.80;1.00;;;;;;5072674;28;20437;-60
2021/12/09 12:40:42;;;;;;;34.67;22.60;;;;;;;;;;5052728;28;20460;-58
2021/12/09 12:43:16;;;;;;;36.00;22.43;;;5.80;1.00;;;;;;5053369;28;20431;-60
2021/12/09 12:46:06;;;;;;;35.53;22.83;;;6.00;1.00;;;;;;5053426;28;20474;-59
2021/12/09 12:49:00;;;;;;;34.20;24.20;;;6.00;1.00;;;;;;5060415;28;20430;-60
2021/12/09 12:51:42;;;;;;;37.37;24.50;;;6.00;1.00;;;;;;5073255;28;20437;-58
2021/12/09 12:54:17;;;;;;;37.37;23.37;;;6.00;1.00;;;;;;5073456;28;20430;-59
2021/12/09 12:56:54;;;;;;;35.60;23.77;;;6.00;1.00;;;;;;5069975;28;20438;-59
2021/12/09 12:59:29;;;;;;;35.80;23.80;;;6.00;1.00;;;;;;5053058;28;20943;-61
2021/12/09 13:02:02;;;;;;;35.40;23.57;;;6.10;1.00;;;;;;5052946;28;20442;-59
2021/12/09 13:10:21;;;;;;;37.50;23.73;;;6.20;1.00;;;;;;5073226;28;20429;-59
2021/12/09 13:12:56;;;;;;;35.90;23.50;;;;;;;;;;5071214;28;20434;-59
2021/12/09 13:15:30;;;;;;;37.97;24.67;;;6.10;1.00;;;;;;5072878;28;20434;-60
2021/12/09 13:18:04;;;;;;;34.87;24.07;;;6.20;1.00;;;;;;5072998;28;20440;-60
2021/12/09 13:20:32;;;;;;;42.40;24.20;;;6.10;1.00;;;;;;5072915;28;20523;-61
2021/12/09 13:23:23;;;;;;;34.10;21.90;;;6.00;1.00;;;;;;5072911;28;20465;-59
2021/12/09 13:26:22;;;;;;;39.83;23.73;;;5.90;1.00;;;;;;5072466;28;20462;-59
2021/12/09 13:29:04;;;;;;;40.60;25.27;;;5.90;1.00;;;;;;5059639;28;20480;-58
2021/12/09 13:32:16;;;;;;;35.93;22.47;;;5.90;1.00;;;;;;5053158;28;20993;-58
2021/12/09 13:35:07;;;;;;;39.73;24.33;;;;;;;;;;5052720;28;20430;-63
2021/12/09 13:40:23;;;;;;;38.57;23.30;;;6.00;1.00;;;;;;5072146;28;20521;-58
2021/12/09 13:45:55;;;;;;;37.07;23.60;;;6.00;1.00;;;;;;5072746;28;20527;-58
2021/12/09 13:48:28;;;;;;;37.30;24.20;;;6.00;1.00;;;;;;5072675;28;21147;-59
2021/12/09 13:51:17;;;;;;;44.37;25.40;;;6.00;1.00;;;;;;5072132;28;20429;-60
2021/12/09 13:56:44;;;;;;;35.57;22.23;;;6.00;1.00;;;;;;5069154;28;20449;-59